Date,TemperatureHighF,TemperatureAvgF,TemperatureLowF,DewpointHighF,DewpointAvgF,DewpointLowF,HumidityHigh,HumidityAvg,HumidityLow,PressureMaxIn,PressureMinIn,WindSpeedMaxMPH,WindSpeedAvgMPH,GustSpeedMaxMPH,PrecipitationSumIn
2013-5-1,75.9,63.9,51.4,49.8,41.9,34.3,72,46,27,25.52,25.52,0,-999,0,0.00
2013-5-2,74.1,60.8,48.2,47.5,44.9,39.9,79,56,38,25.52,25.52,0,-999,0,0.00
2013-5-3,74.1,61.6,50.4,50.2,41.9,35.6,80,49,30,25.52,25.52,0,-999,0,0.00
2013-5-4,73.0,62.4,51.4,47.5,41.1,35.8,73,47,33,25.52,25.52,0,-999,0,0.00
2013-5-5,68.0,56.9,48.2,47.5,40.2,36.0,71,53,37,25.52,25.52,0,-999,0,0.00
2013-5-6,64.6,58.2,53.2,58.5,52.0,44.2,90,78,68,25.52,25.52,0,-999,0,0.00
2013-5-7,66.0,63.3,59.7,63.3,61.3,58.1,98,91,85,25.52,25.52,0,-999,0,0.70
2013-5-8,75.2,64.0,59.4,63.1,57.9,49.8,98,80,46,25.52,25.52,0,-999,0,0.08
2013-5-9,78.6,66.3,57.7,63.5,58.1,54.0,91,75,46,25.52,25.52,0,-999,0,0.08
2013-5-10,88.2,74.6,59.0,64.6,58.4,52.0,91,61,33,25.52,25.52,0,-999,0,0.54
2013-5-11,80.6,69.2,66.2,66.4,64.3,60.1,89,82,60,25.52,25.52,0,-999,0,0.17
2013-5-12,70.3,65.0,55.9,65.5,41.9,29.3,89,43,26,25.52,25.52,0,-999,0,0.00
2013-5-13,65.5,57.0,46.4,37.6,31.9,25.0,61,37,25,25.52,25.52,0,-999,0,0.00
2013-5-14,73.0,57.9,42.8,38.3,34.4,31.1,64,41,27,25.52,25.52,0,-999,0,0.00
2013-5-15,86.7,70.1,56.8,61.5,50.7,38.1,66,51,39,25.52,25.52,0,-999,0,0.00
2013-5-16,87.4,77.7,68.0,61.5,57.2,53.2,71,51,35,25.52,25.52,0,-999,0,0.00
2013-5-17,89.8,77.8,65.5,58.8,52.1,46.0,69,42,28,25.52,25.52,0,-999,0,0.00
2013-5-18,70.9,65.6,61.9,61.7,56.4,48.7,89,71,45,25.52,25.52,0,-999,0,0.00
2013-5-19,80.2,68.6,61.9,67.5,63.7,59.5,97,85,65,25.52,25.52,0,-999,0,0.00
2013-5-20,84.0,74.1,67.6,69.4,67.2,65.7,93,80,60,25.52,25.52,0,-999,0,0.00
2013-5-21,85.1,76.0,69.8,69.8,68.4,67.1,92,78,61,25.52,25.52,0,-999,0,0.00
2013-5-22,89.2,79.9,71.8,71.4,69.7,62.4,94,73,54,25.52,25.52,0,-999,0,0.00
2013-5-23,84.4,75.7,68.5,70.3,67.6,63.7,89,76,56,25.52,25.52,0,-999,0,0.20
2013-5-24,68.5,60.9,52.0,64.6,47.3,31.8,88,59,40,25.52,25.52,0,-999,0,0.04
2013-5-25,69.6,59.5,47.1,38.5,34.7,30.2,54,38,29,25.52,25.52,0,-999,0,0.00
2013-5-26,75.6,65.2,53.4,50.2,37.1,33.4,51,35,24,25.52,25.52,0,-999,0,0.00
2013-5-27,77.9,67.4,55.4,52.3,43.4,39.2,61,42,28,25.52,25.52,0,-999,0,0.00
2013-5-28,87.8,72.0,61.2,68.5,59.9,50.5,86,66,45,25.52,25.52,0,-999,0,0.58
2013-5-29,93.0,81.0,68.9,69.3,65.1,60.4,88,62,38,25.52,25.52,0,-999,0,0.00
2013-5-30,94.1,83.5,71.8,73.4,65.1,60.4,77,55,35,25.52,25.52,0,-999,0,0.00
2013-5-31,93.0,83.5,71.8,68.5,63.1,58.6,77,52,35,25.52,25.52,0,-999,0,0.00